createdAt,value
2022-09-06T00:00:28.570Z,101172.59
2022-09-06T00:02:57.904Z,101156.53
2022-09-06T00:05:25.680Z,101165.13
2022-09-06T00:07:54.108Z,101170.09
2022-09-06T00:10:22.057Z,101156.88
2022-09-06T00:12:49.747Z,101156.88
2022-09-06T00:15:17.638Z,101157.94
2022-09-06T00:17:45.662Z,101154.38
2022-09-06T00:20:13.272Z,101151.72
2022-09-06T00:22:41.265Z,101154.78
2022-09-06T00:25:09.810Z,101146.72
2022-09-06T00:27:37.537Z,101152.63
2022-09-06T00:30:05.768Z,101150.78
2022-09-06T00:32:33.716Z,101154.97
2022-09-06T00:35:01.627Z,101149.81
2022-09-06T00:37:29.243Z,101154.53
2022-09-06T00:39:57.216Z,101144.66
2022-09-06T00:42:24.980Z,101147.19
2022-09-06T00:44:52.684Z,101142.50
2022-09-06T00:47:20.814Z,101148.13
2022-09-06T00:49:52.768Z,101140.62
2022-09-06T00:52:22.307Z,101146.88
2022-09-06T00:54:51.202Z,101145.78
2022-09-06T00:57:19.254Z,101146.72
2022-09-06T00:59:48.345Z,101150.28
2022-09-06T01:02:16.086Z,101155.94
2022-09-06T01:04:45.372Z,101154.94
2022-09-06T01:07:22.865Z,101151.09
2022-09-06T01:10:15.432Z,101157.00
2022-09-06T01:13:02.031Z,101159.50
2022-09-06T01:15:32.806Z,101156.53
2022-09-06T01:18:06.582Z,101165.28
2022-09-06T01:21:05.281Z,101169.19
2022-09-06T01:24:05.460Z,101164.97
2022-09-06T01:26:58.962Z,101161.53
2022-09-06T01:29:30.577Z,101159.19
2022-09-06T01:32:10.586Z,101160.41
2022-09-06T01:34:45.588Z,101164.34
2022-09-06T01:37:16.176Z,101165.75
2022-09-06T01:39:43.983Z,101167.00
2022-09-06T01:42:33.204Z,101173.06
2022-09-06T01:45:12.528Z,101153.91
2022-09-06T01:47:51.302Z,101163.72
2022-09-06T01:50:34.530Z,101152.63
2022-09-06T01:53:17.506Z,101149.03
2022-09-06T01:55:54.278Z,101146.88
2022-09-06T01:58:36.715Z,101165.50
2022-09-06T02:01:28.419Z,101156.41
2022-09-06T02:04:13.567Z,101157.31
2022-09-06T02:06:50.073Z,101151.69
2022-09-06T02:09:23.757Z,101139.53
2022-09-06T02:11:58.963Z,101142.69
2022-09-06T02:14:43.433Z,101138.44
2022-09-06T02:17:15.912Z,101144.97
2022-09-06T02:19:53.953Z,101146.72
2022-09-06T02:22:25.573Z,101147.69
2022-09-06T02:24:55.486Z,101140.47
2022-09-06T02:27:23.348Z,101145.03
2022-09-06T02:29:51.922Z,101139.22
2022-09-06T02:32:21.976Z,101136.34
2022-09-06T02:34:55.353Z,101132.47
2022-09-06T02:37:26.293Z,101127.84
2022-09-06T02:39:56.169Z,101139.13
2022-09-06T02:42:24.983Z,101142.22
2022-09-06T02:44:52.642Z,101140.44
2022-09-06T02:47:20.249Z,101143.38
2022-09-06T02:49:48.235Z,101151.69
2022-09-06T02:52:15.877Z,101151.31
2022-09-06T02:54:43.569Z,101153.88
2022-09-06T02:57:11.506Z,101162.75
2022-09-06T02:59:39.266Z,101154.50
2022-09-06T03:02:06.942Z,101153.88
2022-09-06T03:04:34.975Z,101151.13
2022-09-06T03:07:02.620Z,101156.19
2022-09-06T03:09:30.212Z,101154.19
2022-09-06T03:11:58.179Z,101142.03
2022-09-06T03:14:25.758Z,101144.81
2022-09-06T03:16:53.537Z,101146.91
2022-09-06T03:19:21.798Z,101144.09
2022-09-06T03:21:49.415Z,101140.53
2022-09-06T03:24:17.097Z,101148.91
2022-09-06T03:26:45.006Z,101145.78
2022-09-06T03:29:12.682Z,101148.75
2022-09-06T03:31:40.431Z,101149.22
2022-09-06T03:34:11.068Z,101153.28
2022-09-06T03:36:39.072Z,101156.19
2022-09-06T03:39:07.189Z,101160.38
2022-09-06T03:41:35.290Z,101150.94
2022-09-06T03:44:03.099Z,101157.47
2022-09-06T03:46:30.977Z,101152.22
2022-09-06T03:48:59.900Z,101145.06
2022-09-06T03:51:27.808Z,101139.59
2022-09-06T03:53:55.793Z,101144.41
2022-09-06T03:56:23.783Z,101131.91
2022-09-06T03:58:51.445Z,101141.81
2022-09-06T04:01:19.240Z,101145.56
2022-09-06T04:03:47.434Z,101148.81
2022-09-06T04:06:15.148Z,101146.41
2022-09-06T04:08:42.829Z,101150.50
2022-09-06T04:11:10.851Z,101147.91
2022-09-06T04:13:38.647Z,101151.22
2022-09-06T04:16:06.539Z,101143.78
2022-09-06T04:18:34.642Z,101152.25
2022-09-06T04:21:02.893Z,101157.34
2022-09-06T04:23:30.547Z,101156.66
2022-09-06T04:25:59.394Z,101162.03
2022-09-06T04:28:27.609Z,101155.34
2022-09-06T04:31:05.018Z,101152.03
2022-09-06T04:33:35.083Z,101163.91
2022-09-06T04:36:04.880Z,101167.34
2022-09-06T04:38:39.136Z,101163.09
2022-09-06T04:41:07.647Z,101157.53
2022-09-06T04:43:35.910Z,101164.28
2022-09-06T04:46:24.114Z,101174.06
2022-09-06T04:48:53.358Z,101168.53
2022-09-06T04:51:21.867Z,101168.56
2022-09-06T04:53:49.932Z,101181.09
2022-09-06T04:56:23.054Z,101175.50
2022-09-06T04:58:51.511Z,101168.72
2022-09-06T05:01:20.659Z,101173.00
2022-09-06T05:03:48.652Z,101174.00
2022-09-06T05:06:22.708Z,101172.41
2022-09-06T05:08:50.867Z,101178.84
2022-09-06T05:11:18.742Z,101179.84
2022-09-06T05:13:47.624Z,101168.09
2022-09-06T05:16:15.960Z,101167.22
2022-09-06T05:18:44.390Z,101169.37
2022-09-06T05:21:12.130Z,101169.28
2022-09-06T05:23:40.196Z,101165.06
2022-09-06T05:26:08.059Z,101172.81
2022-09-06T05:28:35.844Z,101177.59
2022-09-06T05:31:23.835Z,101175.53
2022-09-06T05:33:56.124Z,101186.69
2022-09-06T05:36:25.795Z,101189.84
2022-09-06T05:38:55.118Z,101189.63
2022-09-06T05:41:23.608Z,101192.06
2022-09-06T05:43:51.656Z,101187.78
2022-09-06T05:46:19.673Z,101178.19
2022-09-06T05:49:09.275Z,101178.03
2022-09-06T05:51:37.299Z,101181.28
2022-09-06T05:54:05.108Z,101170.81
2022-09-06T05:56:33.150Z,101173.72
2022-09-06T05:59:00.756Z,101181.09
2022-09-06T06:01:30.727Z,101185.41
2022-09-06T06:04:03.820Z,101191.00
2022-09-06T06:06:32.988Z,101184.78
2022-09-06T06:09:01.530Z,101187.00
2022-09-06T06:11:31.269Z,101174.50
2022-09-06T06:14:02.094Z,101176.88
2022-09-06T06:16:30.770Z,101173.63
2022-09-06T06:18:58.680Z,101168.22
2022-09-06T06:21:29.332Z,101176.63
2022-09-06T06:23:58.394Z,101175.31
2022-09-06T06:26:27.317Z,101174.59
2022-09-06T06:28:55.716Z,101170.72
2022-09-06T06:31:24.110Z,101171.47
2022-09-06T06:33:51.905Z,101176.37
2022-09-06T06:36:22.489Z,101180.38
2022-09-06T06:38:51.581Z,101177.13
2022-09-06T06:41:21.349Z,101173.84
2022-09-06T06:43:51.654Z,101180.59
2022-09-06T06:46:21.052Z,101181.19
2022-09-06T06:48:54.059Z,101171.19
2022-09-06T06:51:28.391Z,101174.03
2022-09-06T06:53:59.329Z,101177.41
2022-09-06T06:56:30.700Z,101175.91
2022-09-06T06:59:01.331Z,101188.78
2022-09-06T07:01:31.381Z,101172.44
2022-09-06T07:03:59.593Z,101170.88
2022-09-06T07:09:20.224Z,101174.34
2022-09-06T07:11:49.066Z,101179.66
2022-09-06T07:14:17.739Z,101182.56
2022-09-06T07:16:46.101Z,101176.94
2022-09-06T07:22:04.604Z,101192.13
2022-09-06T07:24:33.695Z,101185.34
2022-09-06T07:29:49.316Z,101177.41
2022-09-06T07:32:17.315Z,101180.47
2022-09-06T07:34:45.150Z,101179.87
2022-09-06T07:37:12.862Z,101181.56
2022-09-06T07:39:41.627Z,101187.00
2022-09-06T07:42:09.501Z,101189.84
2022-09-06T07:44:37.162Z,101186.03
2022-09-06T07:55:31.232Z,101191.12
2022-09-06T07:57:59.285Z,101184.94
2022-09-06T08:00:27.374Z,101195.84
2022-09-06T08:02:55.288Z,101192.13
2022-09-06T08:10:58.558Z,101189.69
2022-09-06T08:13:26.534Z,101186.37
2022-09-06T08:16:08.432Z,101187.94
2022-09-06T08:18:37.832Z,101172.16
2022-09-06T08:21:16.247Z,101179.72
2022-09-06T08:23:48.958Z,101179.25
2022-09-06T08:26:21.433Z,101173.59
2022-09-06T08:28:54.518Z,101179.72
2022-09-06T08:31:22.190Z,101170.34
2022-09-06T08:33:51.209Z,101176.16
2022-09-06T08:36:23.048Z,101171.06
2022-09-06T08:38:51.009Z,101171.00
2022-09-06T08:41:28.846Z,101173.84
2022-09-06T08:47:00.184Z,101167.16
2022-09-06T08:49:32.758Z,101165.72
2022-09-06T08:52:12.564Z,101156.38
2022-09-06T08:54:44.091Z,101152.25
2022-09-06T08:57:45.702Z,101156.31
2022-09-06T09:00:15.059Z,101153.91
2022-09-06T09:03:01.005Z,101148.56
2022-09-06T09:05:32.995Z,101156.41
2022-09-06T09:08:25.729Z,101146.22
2022-09-06T09:11:07.783Z,101147.97
2022-09-06T09:13:51.259Z,101140.41
2022-09-06T09:16:19.462Z,101148.16
2022-09-06T09:18:52.005Z,101150.19
2022-09-06T09:21:25.756Z,101151.66
2022-09-06T09:24:01.911Z,101154.84
2022-09-06T09:26:37.003Z,101148.31
2022-09-06T09:29:13.312Z,101140.78
2022-09-06T09:31:42.975Z,101136.28
2022-09-06T09:34:13.435Z,101131.28
2022-09-06T09:36:41.476Z,101131.06
2022-09-06T09:39:12.274Z,101117.94
2022-09-06T09:41:43.762Z,101119.13
2022-09-06T09:44:19.032Z,101113.06
2022-09-06T09:46:46.849Z,101112.97
2022-09-06T09:49:35.076Z,101108.94
2022-09-06T09:52:10.883Z,101098.59
2022-09-06T09:54:45.193Z,101106.62
2022-09-06T09:57:18.828Z,101099.44
2022-09-06T09:59:54.863Z,101102.78
2022-09-06T10:02:31.207Z,101103.66
2022-09-06T10:05:12.444Z,101097.34
2022-09-06T10:07:49.161Z,101103.31
2022-09-06T10:10:30.304Z,101101.06
2022-09-06T10:13:19.090Z,101091.97
2022-09-06T10:15:50.603Z,101095.78
2022-09-06T10:18:35.614Z,101100.28
2022-09-06T10:21:22.329Z,101095.56
2022-09-06T10:26:59.235Z,101099.72
2022-09-06T10:29:29.619Z,101099.00
2022-09-06T10:32:03.053Z,101110.16
2022-09-06T10:34:54.926Z,101104.87
2022-09-06T10:37:34.533Z,101104.03
2022-09-06T10:40:07.991Z,101098.84
2022-09-06T10:42:53.937Z,101094.16
2022-09-06T10:45:33.361Z,101097.78
2022-09-06T10:48:19.262Z,101099.97
2022-09-06T10:50:55.389Z,101095.69
2022-09-06T10:53:44.840Z,101088.00
2022-09-06T10:56:24.516Z,101096.97
2022-09-06T11:02:29.216Z,101093.09
2022-09-06T11:10:49.938Z,101073.78
2022-09-06T11:13:19.787Z,101069.50
2022-09-06T11:16:16.105Z,101077.16
2022-09-06T11:18:54.812Z,101079.56
2022-09-06T11:21:57.268Z,101079.41
2022-09-06T11:24:33.470Z,101086.00
2022-09-06T11:27:25.863Z,101091.81
2022-09-06T11:29:58.248Z,101093.31
2022-09-06T11:32:43.313Z,101093.19
2022-09-06T11:35:26.037Z,101097.53
2022-09-06T11:38:04.616Z,101087.00
2022-09-06T11:40:41.736Z,101081.13
2022-09-06T11:43:11.056Z,101077.00
2022-09-06T11:45:51.115Z,101080.66
2022-09-06T11:48:25.385Z,101081.72
2022-09-06T11:50:58.971Z,101084.06
2022-09-06T11:53:31.008Z,101073.28
2022-09-06T11:56:01.496Z,101067.19
2022-09-06T11:58:35.814Z,101069.66
2022-09-06T12:01:12.225Z,101066.69
2022-09-06T12:06:35.627Z,101056.97
2022-09-06T12:09:30.829Z,101057.19
2022-09-06T12:12:00.239Z,101041.19
2022-09-06T12:14:41.299Z,101040.59
2022-09-06T12:17:09.785Z,101041.97
2022-09-06T12:19:44.046Z,101040.53
2022-09-06T12:22:31.130Z,101045.97
2022-09-06T12:25:21.044Z,101032.22
2022-09-06T12:28:06.668Z,101024.22
2022-09-06T12:30:48.012Z,101021.94
2022-09-06T12:33:38.951Z,101020.69
2022-09-06T12:36:29.730Z,101015.22
2022-09-06T12:39:00.811Z,101018.91
2022-09-06T12:41:32.360Z,101021.13
2022-09-06T12:44:01.436Z,101015.03
2022-09-06T12:46:30.398Z,101011.22
2022-09-06T12:49:06.873Z,101007.00
2022-09-06T12:51:40.118Z,101003.50
2022-09-06T12:54:19.529Z,100997.66
2022-09-06T12:56:48.050Z,100996.00
2022-09-06T12:59:25.116Z,100997.53
2022-09-06T13:02:02.651Z,100998.94
2022-09-06T13:04:30.296Z,100993.25
2022-09-06T13:07:00.652Z,100984.31
2022-09-06T13:09:30.058Z,100975.81
2022-09-06T13:12:08.534Z,100981.31
2022-09-06T13:14:36.784Z,100971.09
2022-09-06T13:17:06.052Z,100965.06
2022-09-06T13:19:39.485Z,100964.53
2022-09-06T13:22:10.931Z,100968.06
2022-09-06T13:24:47.659Z,100967.56
2022-09-06T13:27:31.150Z,100971.69
2022-09-06T13:30:09.873Z,100970.72
2022-09-06T13:32:47.174Z,100969.56
2022-09-06T13:35:24.001Z,100961.59
2022-09-06T13:37:52.322Z,100958.59
2022-09-06T13:41:09.643Z,100953.13
2022-09-06T13:43:44.986Z,100952.91
2022-09-06T13:46:14.278Z,100957.75
2022-09-06T13:48:44.635Z,100959.72
2022-09-06T13:51:12.841Z,100950.50
2022-09-06T13:53:40.695Z,100952.56
2022-09-06T13:56:08.991Z,100949.13
2022-09-06T13:58:36.794Z,100939.22
2022-09-06T14:01:09.961Z,100939.97
2022-09-06T14:03:41.837Z,100949.97
2022-09-06T14:06:10.488Z,100935.41
2022-09-06T14:09:03.273Z,100935.75
2022-09-06T14:11:27.630Z,100933.28
2022-09-06T14:13:55.719Z,100927.03
2022-09-06T14:16:23.563Z,100926.50
2022-09-06T14:18:52.137Z,100915.00
2022-09-06T14:21:20.303Z,100919.47
2022-09-06T14:23:52.687Z,100911.44
2022-09-06T14:26:22.331Z,100905.41
2022-09-06T14:28:51.113Z,100911.56
2022-09-06T14:31:26.197Z,100908.63
2022-09-06T14:33:55.716Z,100912.50
2022-09-06T14:36:26.638Z,100901.50
2022-09-06T14:38:54.629Z,100899.91
2022-09-06T14:41:22.362Z,100894.41
2022-09-06T14:43:53.095Z,100893.59
2022-09-06T14:46:22.823Z,100885.88
2022-09-06T14:49:00.856Z,100879.62
2022-09-06T14:51:30.293Z,100879.66
2022-09-06T14:54:02.048Z,100880.13
2022-09-06T14:56:30.468Z,100875.62
2022-09-06T14:59:00.014Z,100869.00
2022-09-06T15:01:38.078Z,100875.09
2022-09-06T15:04:09.735Z,100870.56
2022-09-06T15:06:40.433Z,100869.97
2022-09-06T15:09:10.273Z,100874.66
2022-09-06T15:11:43.669Z,100878.56
2022-09-06T15:14:15.851Z,100869.72
2022-09-06T15:16:44.935Z,100867.72
2022-09-06T15:19:13.713Z,100870.53
2022-09-06T15:21:42.064Z,100868.56
2022-09-06T15:24:12.242Z,100871.37
2022-09-06T15:26:41.684Z,100865.47
2022-09-06T15:29:11.825Z,100867.87
2022-09-06T15:31:40.493Z,100864.44
2022-09-06T15:34:09.915Z,100873.00
2022-09-06T15:36:38.329Z,100869.53
2022-09-06T15:39:06.351Z,100871.09
2022-09-06T15:41:36.387Z,100868.91
2022-09-06T15:44:12.232Z,100871.53
2022-09-06T15:46:50.012Z,100873.12
2022-09-06T15:49:26.941Z,100869.84
2022-09-06T15:51:58.337Z,100870.97
2022-09-06T15:54:45.459Z,100866.19
2022-09-06T15:57:17.503Z,100872.19
2022-09-06T15:59:46.128Z,100877.25
2022-09-06T16:02:14.719Z,100878.56
2022-09-06T16:04:42.821Z,100867.47
2022-09-06T16:07:10.899Z,100869.66
2022-09-06T16:09:39.008Z,100867.84
2022-09-06T16:12:07.159Z,100867.47
2022-09-06T16:14:35.741Z,100869.56
2022-09-06T16:17:03.541Z,100867.47
2022-09-06T16:19:32.484Z,100870.34
2022-09-06T16:22:01.036Z,100866.91
2022-09-06T16:24:28.828Z,100858.72
2022-09-06T16:26:57.320Z,100856.34
2022-09-06T16:29:25.237Z,100858.84
2022-09-06T16:31:59.574Z,100862.00
2022-09-06T16:34:27.707Z,100860.06
2022-09-06T16:36:57.039Z,100857.81
2022-09-06T16:39:24.871Z,100859.28
2022-09-06T16:41:52.947Z,100854.19
2022-09-06T16:44:20.615Z,100863.25
2022-09-06T16:46:49.757Z,100849.78
2022-09-06T16:49:19.341Z,100857.31
2022-09-06T16:51:48.907Z,100852.25
2022-09-06T16:54:18.249Z,100853.13
2022-09-06T16:56:45.956Z,100847.53
2022-09-06T16:59:15.325Z,100852.88
2022-09-06T17:01:44.635Z,100849.81
2022-09-06T17:04:13.221Z,100854.81
2022-09-06T17:06:47.465Z,100856.97
2022-09-06T17:09:21.901Z,100854.72
2022-09-06T17:11:50.268Z,100853.97
2022-09-06T17:14:19.109Z,100851.47
2022-09-06T17:17:05.111Z,100851.34
2022-09-06T17:19:38.307Z,100849.91
2022-09-06T17:22:06.361Z,100856.22
2022-09-06T17:24:34.449Z,100850.06
2022-09-06T17:27:02.990Z,100853.63
2022-09-06T17:29:31.779Z,100855.88
2022-09-06T17:32:00.421Z,100862.66
2022-09-06T17:34:28.226Z,100853.34
2022-09-06T17:36:55.973Z,100861.72
2022-09-06T17:39:24.179Z,100849.19
2022-09-06T17:41:54.377Z,100856.59
2022-09-06T17:44:25.497Z,100866.81
2022-09-06T17:47:11.921Z,100863.97
2022-09-06T17:49:40.755Z,100862.88
2022-09-06T17:52:08.984Z,100872.66
2022-09-06T17:54:36.987Z,100873.94
2022-09-06T17:57:04.711Z,100885.72
2022-09-06T17:59:35.362Z,100882.44
2022-09-06T18:02:04.516Z,100885.31
2022-09-06T18:04:32.892Z,100882.66
2022-09-06T18:07:00.599Z,100880.31
2022-09-06T18:09:28.477Z,100869.56
2022-09-06T18:11:57.089Z,100876.31
2022-09-06T18:14:25.850Z,100878.44
2022-09-06T18:16:53.829Z,100869.38
2022-09-06T18:19:23.209Z,100882.19
2022-09-06T18:21:51.921Z,100873.56
2022-09-06T18:24:19.654Z,100878.69
2022-09-06T18:26:47.754Z,100883.00
2022-09-06T18:29:18.060Z,100888.56
2022-09-06T18:31:45.922Z,100882.78
2022-09-06T18:34:14.151Z,100889.19
2022-09-06T18:36:42.337Z,100888.56
2022-09-06T18:39:11.361Z,100892.62
2022-09-06T18:41:57.887Z,100886.88
2022-09-06T18:44:32.622Z,100890.06
2022-09-06T18:47:02.882Z,100885.09
2022-09-06T18:49:31.028Z,100885.56
2022-09-06T18:51:58.766Z,100891.72
2022-09-06T18:54:27.173Z,100880.34
2022-09-06T18:56:56.536Z,100902.19
2022-09-06T18:59:24.612Z,100892.62
2022-09-06T19:01:53.068Z,100891.94
2022-09-06T19:04:21.015Z,100895.75
2022-09-06T19:06:48.725Z,100893.97
2022-09-06T19:09:17.501Z,100893.09
2022-09-06T19:11:49.245Z,100894.41
2022-09-06T19:14:17.546Z,100889.09
2022-09-06T19:16:45.423Z,100876.75
2022-09-06T19:19:13.524Z,100873.56
2022-09-06T19:21:42.594Z,100877.13
2022-09-06T19:24:12.280Z,100873.53
2022-09-06T19:26:42.698Z,100873.81
2022-09-06T19:29:18.843Z,100868.81
2022-09-06T19:31:47.539Z,100869.12
2022-09-06T19:34:17.021Z,100861.34
2022-09-06T19:36:45.096Z,100865.28
2022-09-06T19:39:15.952Z,100863.47
2022-09-06T19:41:46.898Z,100857.50
2022-09-06T19:44:16.827Z,100860.47
2022-09-06T19:46:46.985Z,100862.69
2022-09-06T19:49:16.978Z,100867.09
2022-09-06T19:51:46.726Z,100859.12
2022-09-06T19:54:15.784Z,100858.16
2022-09-06T19:56:44.829Z,100863.00
2022-09-06T19:59:15.223Z,100864.00
2022-09-06T20:01:44.704Z,100863.56
2022-09-06T20:04:14.143Z,100852.84
2022-09-06T20:06:42.115Z,100856.03
2022-09-06T20:09:10.954Z,100845.88
2022-09-06T20:11:40.918Z,100844.88
2022-09-06T20:14:10.284Z,100849.63
2022-09-06T20:16:41.735Z,100848.56
2022-09-06T20:19:12.217Z,100837.78
2022-09-06T20:21:40.087Z,100840.56
2022-09-06T20:24:08.547Z,100847.16
2022-09-06T20:26:36.764Z,100848.06
2022-09-06T20:29:05.256Z,100838.34
2022-09-06T20:31:33.905Z,100840.78
2022-09-06T20:34:04.278Z,100838.66
2022-09-06T20:36:32.562Z,100839.66
2022-09-06T20:39:00.266Z,100845.22
2022-09-06T20:41:28.508Z,100842.62
2022-09-06T20:43:58.401Z,100846.66
2022-09-06T20:46:29.074Z,100846.72
2022-09-06T20:48:59.835Z,100839.88
2022-09-06T20:51:27.816Z,100842.19
2022-09-06T20:54:00.600Z,100850.94
2022-09-06T20:56:34.968Z,100847.72
2022-09-06T20:59:05.510Z,100844.19
2022-09-06T21:01:37.829Z,100847.06
2022-09-06T21:04:07.560Z,100845.03
2022-09-06T21:06:37.447Z,100844.63
2022-09-06T21:09:08.032Z,100845.50
2022-09-06T21:11:36.673Z,100852.06
2022-09-06T21:14:05.266Z,100846.31
2022-09-06T21:16:33.119Z,100851.25
2022-09-06T21:19:03.733Z,100843.53
2022-09-06T21:21:32.537Z,100852.72
2022-09-06T21:24:01.911Z,100854.78
2022-09-06T21:26:30.551Z,100868.16
2022-09-06T21:28:58.521Z,100877.94
2022-09-06T21:31:31.542Z,100878.47
2022-09-06T21:34:03.351Z,100875.84
2022-09-06T21:36:34.017Z,100860.16
2022-09-06T21:39:07.203Z,100860.69
2022-09-06T21:41:35.210Z,100855.97
2022-09-06T21:44:05.712Z,100863.44
2022-09-06T21:46:36.790Z,100876.19
2022-09-06T21:49:13.697Z,100882.38
2022-09-06T21:51:41.906Z,100880.00
2022-09-06T21:54:10.721Z,100874.06
2022-09-06T21:56:39.450Z,100873.66
2022-09-06T21:59:07.746Z,100871.75
2022-09-06T22:01:37.410Z,100864.03
2022-09-06T22:04:06.267Z,100871.16
2022-09-06T22:06:35.218Z,100860.53
2022-09-06T22:09:11.009Z,100850.56
2022-09-06T22:11:41.595Z,100845.25
2022-09-06T22:14:11.372Z,100845.72
2022-09-06T22:16:40.605Z,100849.22
2022-09-06T22:19:09.571Z,100849.34
2022-09-06T22:21:38.805Z,100840.81
2022-09-06T22:24:09.900Z,100852.25
2022-09-06T22:26:38.078Z,100849.31
2022-09-06T22:29:07.722Z,100853.19
2022-09-06T22:31:36.859Z,100849.16
2022-09-06T22:34:05.647Z,100844.72
2022-09-06T22:36:33.705Z,100837.03
2022-09-06T22:39:01.809Z,100839.69
2022-09-06T22:41:31.808Z,100841.50
2022-09-06T22:44:00.915Z,100828.31
2022-09-06T22:46:29.524Z,100831.47
2022-09-06T22:48:58.399Z,100838.56
2022-09-06T22:51:26.088Z,100834.22
2022-09-06T22:53:54.161Z,100839.44
2022-09-06T22:56:22.024Z,100845.47
2022-09-06T22:58:49.886Z,100849.81
2022-09-06T23:01:18.236Z,100840.50
2022-09-06T23:03:48.180Z,100843.47
2022-09-06T23:06:15.875Z,100835.31
2022-09-06T23:08:43.939Z,100842.28
2022-09-06T23:11:17.016Z,100835.31
2022-09-06T23:13:46.172Z,100835.06
2022-09-06T23:16:17.325Z,100831.03
2022-09-06T23:18:46.798Z,100832.50
2022-09-06T23:21:17.759Z,100835.31
2022-09-06T23:23:46.960Z,100830.84
2022-09-06T23:26:23.626Z,100837.16
2022-09-06T23:28:56.792Z,100836.78
2022-09-06T23:31:31.654Z,100829.84
2022-09-06T23:34:01.428Z,100827.59
2022-09-06T23:36:29.251Z,100828.00
2022-09-06T23:38:57.351Z,100822.34
2022-09-06T23:41:25.587Z,100824.78
2022-09-06T23:43:53.512Z,100829.19
2022-09-06T23:46:21.303Z,100822.97
2022-09-06T23:48:49.384Z,100826.81
2022-09-06T23:51:17.375Z,100827.88
2022-09-06T23:53:45.351Z,100821.19
2022-09-06T23:56:13.643Z,100819.00
2022-09-06T23:58:41.548Z,100821.66
